SHT weather

Shepparton Airport
Victoria, Australia

Public forecast

Using degrees Celsius for public forecast. Weather courtesy of forecast.io.

METAR (pilot weather report)

Closest report is Wangaratta Airport, 44.2 nm (81.8 km) E. Retrieved 2019/04/22 17:00 UTC (53 minutes ago):

YWGT 221700Z AUTO 27004KT 9999 // NCD 14/14 Q1024

TAF (pilot weather forecast)

Forecast is more than 12 hours old.

Closest forecast is Wangaratta Airport, 44.2 nm (81.8 km) E. Retrieved 2019/04/22 02:00 UTC (16 hours ago):

TAF YWGT 220044Z 2202/2214 VRB05KT CAVOK INTER 2203/2210 5000 SHRA FEW008 BKN018